createdAt,value
2022-10-02T00:01:06.418Z,10.70
2022-10-02T00:03:38.332Z,10.80
2022-10-02T00:06:10.839Z,10.70
2022-10-02T00:08:41.363Z,10.80
2022-10-02T00:11:13.558Z,10.80
2022-10-02T00:13:46.850Z,10.80
2022-10-02T00:16:24.097Z,10.70
2022-10-02T00:18:54.574Z,10.70
2022-10-02T00:21:34.302Z,10.80
2022-10-02T00:24:04.162Z,10.70
2022-10-02T00:26:38.190Z,10.80
2022-10-02T00:29:18.746Z,10.80
2022-10-02T00:31:55.285Z,10.80
2022-10-02T00:34:31.676Z,10.80
2022-10-02T00:37:09.719Z,10.90
2022-10-02T00:39:49.242Z,10.90
2022-10-02T00:42:53.650Z,10.90
2022-10-02T00:45:47.393Z,10.90
2022-10-02T00:48:35.584Z,10.90
2022-10-02T00:51:14.123Z,11.00
2022-10-02T00:53:50.575Z,11.00
2022-10-02T00:56:28.588Z,11.00
2022-10-02T00:59:23.208Z,11.10
2022-10-02T01:01:55.825Z,11.10
2022-10-02T01:04:32.037Z,11.10
2022-10-02T01:07:00.231Z,11.10
2022-10-02T01:09:29.264Z,11.10
2022-10-02T01:11:57.842Z,11.00
2022-10-02T01:14:33.651Z,11.10
2022-10-02T01:17:02.630Z,11.10
2022-10-02T01:19:37.847Z,11.10
2022-10-02T01:22:12.139Z,11.10
2022-10-02T01:24:48.730Z,11.10
2022-10-02T01:27:16.692Z,11.10
2022-10-02T01:29:46.600Z,11.20
2022-10-02T01:32:14.483Z,11.20
2022-10-02T01:34:42.833Z,11.30
2022-10-02T01:37:11.089Z,11.30
2022-10-02T01:39:38.898Z,11.20
2022-10-02T01:42:08.024Z,11.30
2022-10-02T01:44:35.853Z,11.30
2022-10-02T01:47:08.689Z,11.30
2022-10-02T01:49:57.077Z,11.30
2022-10-02T01:52:36.276Z,11.30
2022-10-02T01:55:15.961Z,11.40
2022-10-02T01:57:55.303Z,11.40
2022-10-02T02:00:25.667Z,11.40
2022-10-02T02:03:06.247Z,11.40
2022-10-02T02:05:48.229Z,11.40
2022-10-02T02:08:25.674Z,11.50
2022-10-02T02:11:03.149Z,11.50
2022-10-02T02:13:41.350Z,11.40
2022-10-02T02:16:14.798Z,11.40
2022-10-02T02:18:47.679Z,11.40
2022-10-02T02:21:23.373Z,11.40
2022-10-02T02:23:52.953Z,11.40
2022-10-02T02:26:22.200Z,11.40
2022-10-02T02:28:54.496Z,11.40
2022-10-02T02:31:26.072Z,11.40
2022-10-02T02:33:58.138Z,11.50
2022-10-02T02:36:30.314Z,11.50
2022-10-02T02:39:02.868Z,11.40
2022-10-02T02:41:38.953Z,11.50
2022-10-02T02:44:15.246Z,11.50
2022-10-02T02:47:07.004Z,11.50
2022-10-02T02:49:44.204Z,11.60
2022-10-02T02:52:18.143Z,11.60
2022-10-02T02:54:49.501Z,11.80
2022-10-02T02:57:20.931Z,11.80
2022-10-02T02:59:51.312Z,11.80
2022-10-02T03:02:19.141Z,11.80
2022-10-02T03:04:47.001Z,11.80
2022-10-02T03:07:17.465Z,11.80
2022-10-02T03:09:54.611Z,11.80
2022-10-02T03:12:29.871Z,11.80
2022-10-02T03:15:10.755Z,11.80
2022-10-02T03:18:01.739Z,11.70
2022-10-02T03:20:36.811Z,11.70
2022-10-02T03:23:10.013Z,11.70
2022-10-02T03:25:42.591Z,11.80
2022-10-02T03:28:27.217Z,11.90
2022-10-02T03:31:05.899Z,11.90
2022-10-02T03:33:37.429Z,11.90
2022-10-02T03:36:05.913Z,11.80
2022-10-02T03:38:34.771Z,11.80
2022-10-02T03:41:02.587Z,11.80
2022-10-02T03:43:31.505Z,11.80
2022-10-02T03:45:59.319Z,11.80
2022-10-02T03:48:28.470Z,11.80
2022-10-02T03:50:56.239Z,11.80
2022-10-02T03:53:30.159Z,11.80
2022-10-02T03:56:04.258Z,11.80
2022-10-02T03:58:33.297Z,11.80
2022-10-02T04:01:06.699Z,11.80
2022-10-02T04:03:39.926Z,11.80
2022-10-02T04:06:13.862Z,11.80
2022-10-02T04:08:48.178Z,11.80
2022-10-02T04:11:23.751Z,11.80
2022-10-02T04:13:58.441Z,11.80
2022-10-02T04:16:32.294Z,11.80
2022-10-02T04:19:08.096Z,11.90
2022-10-02T04:21:41.566Z,11.90
2022-10-02T04:24:19.194Z,12.00
2022-10-02T04:26:55.254Z,12.10
2022-10-02T04:29:26.811Z,12.10
2022-10-02T04:32:00.883Z,12.10
2022-10-02T04:34:30.029Z,12.10
2022-10-02T04:37:12.178Z,12.20
2022-10-02T04:39:55.235Z,12.20
2022-10-02T04:42:35.981Z,12.20
2022-10-02T04:45:18.326Z,12.30
2022-10-02T04:48:09.578Z,12.30
2022-10-02T04:50:47.225Z,12.30
2022-10-02T04:53:38.661Z,12.30
2022-10-02T04:56:28.669Z,12.30
2022-10-02T04:59:09.932Z,12.40
2022-10-02T05:01:55.784Z,12.40
2022-10-02T05:04:41.839Z,12.40
2022-10-02T05:07:30.190Z,12.40
2022-10-02T05:10:09.364Z,12.40
2022-10-02T05:12:52.860Z,12.50
2022-10-02T05:15:36.729Z,12.50
2022-10-02T05:18:21.306Z,12.60
2022-10-02T05:21:07.950Z,12.70
2022-10-02T05:23:50.972Z,12.60
2022-10-02T05:26:51.444Z,12.60
2022-10-02T05:29:50.279Z,12.70
2022-10-02T05:32:32.302Z,12.70
2022-10-02T05:35:16.949Z,12.90
2022-10-02T05:37:55.290Z,12.80
2022-10-02T05:40:31.505Z,12.90
2022-10-02T05:43:06.911Z,12.80
2022-10-02T05:45:39.088Z,12.80
2022-10-02T05:48:15.059Z,12.80
2022-10-02T05:50:43.783Z,12.80
2022-10-02T05:53:20.078Z,12.90
2022-10-02T05:55:53.883Z,13.00
2022-10-02T05:58:28.400Z,12.90
2022-10-02T06:01:05.242Z,12.90
2022-10-02T06:03:43.453Z,12.90
2022-10-02T06:06:16.211Z,13.00
2022-10-02T06:08:48.895Z,13.10
2022-10-02T06:11:23.132Z,13.20
2022-10-02T06:13:53.818Z,13.20
2022-10-02T06:16:25.042Z,13.20
2022-10-02T06:18:58.426Z,13.20
2022-10-02T06:21:34.013Z,13.20
2022-10-02T06:24:06.576Z,13.30
2022-10-02T06:26:44.629Z,13.30
2022-10-02T06:29:23.665Z,13.30
2022-10-02T06:32:02.491Z,13.30
2022-10-02T06:34:30.288Z,13.40
2022-10-02T06:37:22.824Z,13.40
2022-10-02T06:40:07.918Z,13.50
2022-10-02T06:42:49.430Z,13.50
2022-10-02T06:45:24.269Z,13.50
2022-10-02T06:48:01.896Z,13.60
2022-10-02T06:50:42.811Z,13.80
2022-10-02T06:53:25.489Z,13.90
2022-10-02T06:56:01.258Z,13.90
2022-10-02T06:58:48.503Z,13.80
2022-10-02T07:01:30.003Z,13.90
2022-10-02T07:04:16.721Z,13.90
2022-10-02T07:07:00.126Z,14.00
2022-10-02T07:09:43.002Z,13.90
2022-10-02T07:12:28.386Z,14.00
2022-10-02T07:15:15.236Z,14.00
2022-10-02T07:17:55.403Z,14.00
2022-10-02T07:20:42.545Z,14.10
2022-10-02T07:23:28.334Z,14.30
2022-10-02T07:26:19.396Z,14.60
2022-10-02T07:28:54.629Z,14.90
2022-10-02T07:31:37.063Z,15.10
2022-10-02T07:34:17.276Z,15.10
2022-10-02T07:36:55.047Z,14.90
2022-10-02T07:39:33.101Z,14.90
2022-10-02T07:42:16.913Z,14.70
2022-10-02T07:45:03.741Z,14.60
2022-10-02T07:47:49.817Z,14.60
2022-10-02T07:50:25.907Z,14.80
2022-10-02T07:53:05.360Z,14.90
2022-10-02T07:55:36.439Z,14.90
2022-10-02T07:58:07.163Z,15.00
2022-10-02T08:00:41.333Z,15.00
2022-10-02T08:03:16.729Z,15.10
2022-10-02T08:05:47.847Z,15.00
2022-10-02T08:08:20.241Z,15.10
2022-10-02T08:10:52.635Z,15.30
2022-10-02T08:13:25.157Z,15.40
2022-10-02T08:15:57.021Z,15.50
2022-10-02T08:18:34.553Z,15.40
2022-10-02T08:21:04.554Z,15.50
2022-10-02T08:23:38.843Z,16.00
2022-10-02T08:26:12.553Z,16.30
2022-10-02T08:28:45.943Z,16.20
2022-10-02T08:31:15.848Z,15.80
2022-10-02T08:33:45.171Z,15.90
2022-10-02T08:36:33.234Z,15.90
2022-10-02T08:39:10.351Z,16.20
2022-10-02T08:42:20.957Z,16.10
2022-10-02T08:45:18.426Z,15.90
2022-10-02T08:48:23.248Z,16.10
2022-10-02T08:51:25.592Z,16.40
2022-10-02T08:54:21.895Z,16.60
2022-10-02T08:57:13.106Z,16.70
2022-10-02T09:00:05.155Z,16.60
2022-10-02T09:03:10.525Z,16.60
2022-10-02T09:06:18.260Z,16.50
2022-10-02T09:09:45.447Z,16.60
2022-10-02T09:12:58.167Z,16.70
2022-10-02T09:15:43.787Z,16.90
2022-10-02T09:18:18.289Z,16.90
2022-10-02T09:21:15.279Z,16.90
2022-10-02T09:24:26.408Z,17.30
2022-10-02T09:27:26.532Z,17.20
2022-10-02T09:30:16.679Z,17.20
2022-10-02T09:33:39.315Z,18.00
2022-10-02T09:36:35.331Z,18.30
2022-10-02T09:39:20.907Z,18.10
2022-10-02T09:42:17.037Z,18.10
2022-10-02T09:45:07.266Z,18.60
2022-10-02T09:48:13.505Z,18.10
2022-10-02T09:51:17.907Z,18.30
2022-10-02T09:54:15.652Z,18.50
2022-10-02T09:57:22.939Z,18.10
2022-10-02T10:00:15.437Z,18.10
2022-10-02T10:03:12.973Z,18.00
2022-10-02T10:06:06.142Z,18.00
2022-10-02T10:08:57.293Z,18.20
2022-10-02T10:11:49.868Z,18.00
2022-10-02T10:14:49.094Z,17.80
2022-10-02T10:18:04.231Z,18.00
2022-10-02T10:21:00.946Z,18.10
2022-10-02T10:23:59.211Z,18.10
2022-10-02T10:26:53.249Z,18.40
2022-10-02T10:29:59.989Z,18.20
2022-10-02T10:33:19.481Z,18.20
2022-10-02T10:36:46.744Z,18.20
2022-10-02T10:39:38.438Z,18.40
2022-10-02T10:42:49.889Z,18.20
2022-10-02T10:45:44.830Z,18.40
2022-10-02T10:48:27.488Z,18.20
2022-10-02T10:51:14.203Z,18.10
2022-10-02T10:54:18.836Z,18.10
2022-10-02T10:56:54.009Z,18.20
2022-10-02T11:00:02.844Z,18.20
2022-10-02T11:02:53.198Z,18.10
2022-10-02T11:05:57.919Z,18.00
2022-10-02T11:09:00.888Z,17.80
2022-10-02T11:11:39.863Z,17.60
2022-10-02T11:14:23.963Z,17.40
2022-10-02T11:17:30.251Z,17.40
2022-10-02T11:20:20.101Z,17.20
2022-10-02T11:23:26.047Z,17.20
2022-10-02T11:26:11.835Z,17.30
2022-10-02T11:29:00.215Z,17.30
2022-10-02T11:31:44.475Z,17.20
2022-10-02T11:34:54.155Z,17.20
2022-10-02T11:37:38.741Z,17.00
2022-10-02T11:40:34.794Z,16.60
2022-10-02T11:43:44.120Z,16.20
2022-10-02T11:46:37.683Z,15.60
2022-10-02T11:49:35.739Z,15.50
2022-10-02T11:52:51.471Z,15.40
2022-10-02T11:55:32.165Z,15.60
2022-10-02T11:58:11.851Z,15.70
2022-10-02T12:01:09.149Z,15.60
2022-10-02T12:04:04.017Z,15.60
2022-10-02T12:06:49.053Z,15.60
2022-10-02T12:09:28.908Z,15.70
2022-10-02T12:12:13.053Z,16.00
2022-10-02T12:14:49.242Z,16.30
2022-10-02T12:17:54.509Z,16.50
2022-10-02T12:20:52.887Z,16.70
2022-10-02T12:23:48.963Z,16.60
2022-10-02T12:26:48.590Z,16.40
2022-10-02T12:29:26.418Z,16.30
2022-10-02T12:32:01.725Z,16.30
2022-10-02T12:34:41.144Z,16.30
2022-10-02T12:37:16.470Z,16.20
2022-10-02T12:39:54.056Z,16.10
2022-10-02T12:42:43.330Z,16.00
2022-10-02T12:45:35.194Z,16.00
2022-10-02T12:48:28.562Z,15.90
2022-10-02T12:51:29.815Z,16.00
2022-10-02T12:54:37.373Z,16.10
2022-10-02T12:57:38.968Z,16.50
2022-10-02T13:00:14.617Z,16.80
2022-10-02T13:03:31.396Z,16.90
2022-10-02T13:06:36.366Z,16.70
2022-10-02T13:09:20.565Z,16.70
2022-10-02T13:12:25.219Z,16.70
2022-10-02T13:15:11.680Z,16.40
2022-10-02T13:17:48.547Z,16.20
2022-10-02T13:20:28.070Z,16.10
2022-10-02T13:23:03.134Z,16.10
2022-10-02T13:25:39.027Z,16.00
2022-10-02T13:28:30.519Z,15.80
2022-10-02T13:31:10.002Z,15.70
2022-10-02T13:33:57.289Z,15.50
2022-10-02T13:36:35.877Z,15.30
2022-10-02T13:39:17.052Z,15.00
2022-10-02T13:41:58.010Z,15.00
2022-10-02T13:44:35.636Z,14.90
2022-10-02T13:47:31.482Z,14.80
2022-10-02T13:50:17.461Z,14.70
2022-10-02T13:53:10.533Z,14.60
2022-10-02T13:55:44.056Z,14.60
2022-10-02T13:58:30.844Z,14.60
2022-10-02T14:01:08.924Z,14.50
2022-10-02T14:03:58.807Z,14.60
2022-10-02T14:06:34.999Z,14.50
2022-10-02T14:09:24.353Z,14.50
2022-10-02T14:12:03.844Z,14.50
2022-10-02T14:14:55.534Z,14.50
2022-10-02T14:17:32.027Z,14.60
2022-10-02T14:20:32.583Z,14.70
2022-10-02T14:23:17.470Z,14.80
2022-10-02T14:26:06.120Z,15.10
2022-10-02T14:28:56.932Z,15.20
2022-10-02T14:31:42.903Z,15.30
2022-10-02T14:34:41.632Z,15.30
2022-10-02T14:37:30.275Z,15.20
2022-10-02T14:40:01.473Z,15.20
2022-10-02T14:42:44.693Z,15.20
2022-10-02T14:45:32.075Z,15.20
2022-10-02T14:48:15.522Z,15.10
2022-10-02T14:50:57.082Z,15.20
2022-10-02T14:54:02.877Z,15.20
2022-10-02T14:56:53.319Z,15.40
2022-10-02T14:59:56.458Z,15.40
2022-10-02T15:02:48.224Z,15.30
2022-10-02T15:05:34.954Z,15.30
2022-10-02T15:08:10.909Z,14.90
2022-10-02T15:10:39.614Z,14.40
2022-10-02T15:13:13.455Z,14.20
2022-10-02T15:15:47.783Z,14.20
2022-10-02T15:18:23.919Z,14.10
2022-10-02T15:21:00.467Z,14.20
2022-10-02T15:23:43.588Z,14.20
2022-10-02T15:26:25.123Z,14.30
2022-10-02T15:29:03.833Z,14.40
2022-10-02T15:31:41.195Z,14.50
2022-10-02T15:34:19.591Z,14.50
2022-10-02T15:37:03.332Z,14.50
2022-10-02T15:40:16.791Z,14.40
2022-10-02T15:42:57.531Z,14.40
2022-10-02T15:45:50.008Z,14.30
2022-10-02T15:48:49.011Z,14.30
2022-10-02T15:51:37.629Z,14.30
2022-10-02T15:54:18.492Z,14.20
2022-10-02T15:57:00.765Z,14.20
2022-10-02T15:59:55.337Z,14.20
2022-10-02T16:02:45.214Z,14.10
2022-10-02T16:05:29.253Z,14.10
2022-10-02T16:08:20.158Z,14.10
2022-10-02T16:11:09.135Z,14.10
2022-10-02T16:13:52.376Z,14.10
2022-10-02T16:16:45.948Z,14.10
2022-10-02T16:19:24.088Z,14.00
2022-10-02T16:22:14.351Z,14.00
2022-10-02T16:25:02.624Z,14.00
2022-10-02T16:27:46.056Z,13.80
2022-10-02T16:30:16.342Z,13.80
2022-10-02T16:32:59.348Z,13.80
2022-10-02T16:35:53.366Z,13.80
2022-10-02T16:38:29.846Z,13.70
2022-10-02T16:40:59.572Z,13.60
2022-10-02T16:43:49.553Z,13.60
2022-10-02T16:46:24.547Z,13.60
2022-10-02T16:48:57.109Z,13.60
2022-10-02T16:51:39.953Z,13.60
2022-10-02T16:54:18.982Z,13.60
2022-10-02T16:56:55.078Z,13.60
2022-10-02T16:59:28.282Z,13.50
2022-10-02T17:02:19.060Z,13.40
2022-10-02T17:04:58.971Z,13.40
2022-10-02T17:07:36.176Z,13.40
2022-10-02T17:10:19.383Z,13.40
2022-10-02T17:12:52.605Z,13.40
2022-10-02T17:15:26.170Z,13.40
2022-10-02T17:18:06.199Z,13.40
2022-10-02T17:20:41.386Z,13.40
2022-10-02T17:23:15.595Z,13.40
2022-10-02T17:25:50.995Z,13.40
2022-10-02T17:28:26.376Z,13.40
2022-10-02T17:31:20.238Z,13.40
2022-10-02T17:33:52.926Z,13.40
2022-10-02T17:36:30.504Z,13.40
2022-10-02T17:39:34.805Z,13.30
2022-10-02T17:42:12.329Z,13.00
2022-10-02T17:44:48.715Z,12.50
2022-10-02T17:47:47.433Z,11.90
2022-10-02T17:50:50.566Z,11.30
2022-10-02T17:53:51.796Z,10.90
2022-10-02T17:56:34.633Z,10.90
2022-10-02T17:59:36.393Z,10.90
2022-10-02T18:02:15.170Z,10.80
2022-10-02T18:04:58.070Z,10.80
2022-10-02T18:07:40.117Z,10.80
2022-10-02T18:10:19.276Z,10.80
2022-10-02T18:13:14.951Z,10.80
2022-10-02T18:16:04.512Z,10.80
2022-10-02T18:18:40.201Z,10.80
2022-10-02T18:21:28.809Z,10.80
2022-10-02T18:24:15.271Z,10.80
2022-10-02T18:27:00.050Z,10.80
2022-10-02T18:29:52.373Z,10.80
2022-10-02T18:32:44.652Z,10.80
2022-10-02T18:35:25.803Z,10.80
2022-10-02T18:38:12.113Z,10.90
2022-10-02T18:40:56.044Z,10.90
2022-10-02T18:43:51.056Z,10.90
2022-10-02T18:46:30.204Z,10.90
2022-10-02T18:49:26.946Z,10.90
2022-10-02T18:52:07.276Z,11.00
2022-10-02T18:54:46.441Z,11.00
2022-10-02T18:57:26.065Z,11.00
2022-10-02T19:00:04.454Z,10.90
2022-10-02T19:02:46.392Z,10.90
2022-10-02T19:05:26.258Z,10.80
2022-10-02T19:08:08.222Z,10.80
2022-10-02T19:10:43.721Z,10.80
2022-10-02T19:13:21.608Z,10.80
2022-10-02T19:15:52.272Z,10.80
2022-10-02T19:18:22.637Z,10.80
2022-10-02T19:20:59.477Z,10.80
2022-10-02T19:23:38.208Z,10.80
2022-10-02T19:26:16.369Z,10.80
2022-10-02T19:28:47.753Z,10.80
2022-10-02T19:31:22.512Z,10.90
2022-10-02T19:33:58.532Z,10.90
2022-10-02T19:36:31.606Z,10.90
2022-10-02T19:39:03.303Z,10.80
2022-10-02T19:41:35.909Z,10.90
2022-10-02T19:44:07.359Z,10.80
2022-10-02T19:46:39.117Z,10.90
2022-10-02T19:49:08.671Z,10.90
2022-10-02T19:51:46.043Z,10.80
2022-10-02T19:54:19.775Z,10.70
2022-10-02T19:56:48.382Z,10.70
2022-10-02T19:59:19.874Z,10.70
2022-10-02T20:01:51.667Z,10.70
2022-10-02T20:04:21.944Z,10.70
2022-10-02T20:06:54.461Z,10.70
2022-10-02T20:09:28.472Z,10.70
2022-10-02T20:12:01.235Z,10.70
2022-10-02T20:14:36.444Z,10.70
2022-10-02T20:17:09.798Z,10.70
2022-10-02T20:19:43.545Z,10.70
2022-10-02T20:22:23.864Z,10.70
2022-10-02T20:24:57.091Z,10.70
2022-10-02T20:27:35.498Z,10.70
2022-10-02T20:30:08.143Z,10.70
2022-10-02T20:32:40.162Z,10.70
2022-10-02T20:35:14.506Z,10.70
2022-10-02T20:37:46.549Z,10.70
2022-10-02T20:40:17.408Z,10.70
2022-10-02T20:42:50.581Z,10.60
2022-10-02T20:45:18.653Z,10.60
2022-10-02T20:48:14.737Z,10.60
2022-10-02T20:50:58.520Z,10.60
2022-10-02T20:54:01.374Z,10.70
2022-10-02T20:56:55.104Z,10.70
2022-10-02T20:59:51.544Z,10.70
2022-10-02T21:02:34.554Z,10.70
2022-10-02T21:05:45.550Z,10.70
2022-10-02T21:08:39.416Z,10.60
2022-10-02T21:11:21.887Z,10.60
2022-10-02T21:14:18.363Z,10.60
2022-10-02T21:17:16.019Z,10.60
2022-10-02T21:20:12.270Z,10.60
2022-10-02T21:23:02.416Z,10.60
2022-10-02T21:25:54.379Z,10.70
2022-10-02T21:28:49.943Z,10.60
2022-10-02T21:31:40.970Z,10.60
2022-10-02T21:34:24.887Z,10.70
2022-10-02T21:36:59.550Z,10.70
2022-10-02T21:43:17.886Z,10.70
2022-10-02T21:46:31.684Z,10.70
2022-10-02T21:49:38.593Z,10.80
2022-10-02T21:52:44.212Z,10.80
2022-10-02T21:55:55.874Z,10.80
2022-10-02T21:59:06.132Z,10.80
2022-10-02T22:02:09.090Z,10.70
2022-10-02T22:05:11.883Z,10.70
2022-10-02T22:07:47.259Z,10.70
2022-10-02T22:10:23.365Z,10.70
2022-10-02T22:13:06.731Z,10.60
2022-10-02T22:15:43.678Z,10.60
2022-10-02T22:18:18.636Z,10.60
2022-10-02T22:21:19.238Z,10.60
2022-10-02T22:24:05.787Z,10.60
2022-10-02T22:26:53.391Z,10.60
2022-10-02T22:29:29.291Z,10.50
2022-10-02T22:32:27.103Z,10.50
2022-10-02T22:35:07.605Z,10.50
2022-10-02T22:37:59.755Z,10.50
2022-10-02T22:40:41.000Z,10.50
2022-10-02T22:43:10.673Z,10.50
2022-10-02T22:45:45.291Z,10.50
2022-10-02T22:48:16.960Z,10.50
2022-10-02T22:50:49.119Z,10.60
2022-10-02T22:53:26.228Z,10.50
2022-10-02T22:55:57.743Z,10.50
2022-10-02T22:58:35.573Z,10.50
2022-10-02T23:01:12.423Z,10.50
2022-10-02T23:03:44.974Z,10.50
2022-10-02T23:06:22.447Z,10.40
2022-10-02T23:09:00.561Z,10.40
2022-10-02T23:11:33.439Z,10.40
2022-10-02T23:14:06.355Z,10.30
2022-10-02T23:16:39.729Z,10.40
2022-10-02T23:19:13.226Z,10.30
2022-10-02T23:21:47.780Z,10.20
2022-10-02T23:24:23.833Z,10.20
2022-10-02T23:26:55.485Z,10.20
2022-10-02T23:29:38.128Z,10.10
2022-10-02T23:32:14.851Z,10.00
2022-10-02T23:34:50.947Z,9.90
2022-10-02T23:37:22.565Z,9.80
2022-10-02T23:39:58.254Z,9.80
2022-10-02T23:42:36.027Z,9.70
2022-10-02T23:45:12.076Z,9.70
2022-10-02T23:47:54.686Z,9.70
2022-10-02T23:50:25.522Z,9.70
2022-10-02T23:53:20.641Z,9.70
2022-10-02T23:56:08.941Z,9.60
2022-10-02T23:58:59.011Z,9.50
